createdAt,value
2023-02-10T05:09:56.329Z,22.61
2023-02-10T05:10:55.365Z,22.60
2023-02-10T05:11:55.363Z,22.60
2023-02-10T05:12:55.337Z,22.60
2023-02-10T05:13:55.326Z,22.61
2023-02-10T05:14:55.328Z,22.62
2023-02-10T05:15:55.321Z,22.63
2023-02-10T05:16:55.283Z,22.61
2023-02-10T05:17:55.260Z,22.59
2023-02-10T05:18:55.242Z,22.59
2023-02-10T05:19:55.245Z,22.59
2023-02-10T05:20:55.191Z,22.58
2023-02-10T05:21:55.209Z,22.58
2023-02-10T05:22:55.259Z,22.58
2023-02-10T05:23:55.288Z,22.59
2023-02-10T05:24:55.353Z,22.60
2023-02-10T05:25:55.339Z,22.58
2023-02-10T05:26:55.379Z,22.58
2023-02-10T05:27:55.459Z,22.56
2023-02-10T05:28:55.460Z,22.54
2023-02-10T05:29:55.508Z,22.55
2023-02-10T05:30:55.598Z,22.56
2023-02-10T05:31:55.600Z,22.57
2023-02-10T05:32:55.621Z,22.58
2023-02-10T05:33:55.691Z,22.58
2023-02-10T05:34:55.705Z,22.58
2023-02-10T05:35:55.748Z,22.58
2023-02-10T05:36:55.799Z,22.56
2023-02-10T05:37:55.825Z,22.55
2023-02-10T05:38:55.886Z,22.54
2023-02-10T05:39:55.909Z,22.53
2023-02-10T05:40:56.792Z,22.54
2023-02-10T05:41:55.943Z,22.56
2023-02-10T05:42:55.911Z,22.58
2023-02-10T05:43:55.914Z,22.54
2023-02-10T05:44:55.897Z,22.54
2023-02-10T05:45:55.922Z,22.56
2023-02-10T05:46:55.853Z,22.57
2023-02-10T05:47:55.867Z,22.57
2023-02-10T05:48:55.863Z,22.57
2023-02-10T05:49:55.910Z,22.59
2023-02-10T05:50:55.956Z,22.59
2023-02-10T05:51:55.995Z,22.59
2023-02-10T05:52:56.037Z,22.59
2023-02-10T05:53:56.091Z,22.59
2023-02-10T05:54:56.079Z,22.59
2023-02-10T05:55:56.062Z,22.59
2023-02-10T05:57:56.033Z,22.59
2023-02-10T05:58:56.009Z,22.59
2023-02-10T05:59:56.003Z,22.59
2023-02-10T06:00:55.992Z,22.60
2023-02-10T06:01:56.018Z,22.58
2023-02-10T06:02:55.980Z,22.59
2023-02-10T06:03:55.951Z,22.57
2023-02-10T06:04:55.940Z,22.57
2023-02-10T06:05:55.985Z,22.57
2023-02-10T06:06:55.925Z,22.56
2023-02-10T06:07:55.896Z,22.56
2023-02-10T06:08:55.914Z,22.58
2023-02-10T06:09:55.865Z,22.57
2023-02-10T06:10:55.844Z,22.57
2023-02-10T06:11:55.843Z,22.57
2023-02-10T06:12:55.820Z,22.57
2023-02-10T06:13:55.807Z,22.54
2023-02-10T06:14:55.819Z,22.54
2023-02-10T06:15:55.802Z,22.55
2023-02-10T06:16:55.758Z,22.57
2023-02-10T06:17:55.735Z,22.58
2023-02-10T06:18:55.712Z,22.58
2023-02-10T06:19:55.730Z,22.57
2023-02-10T06:20:55.711Z,22.55
2023-02-10T06:21:55.684Z,22.53
2023-02-10T06:22:55.657Z,22.52
2023-02-10T06:23:55.654Z,22.52
2023-02-10T06:24:57.673Z,22.53
2023-02-10T06:25:55.664Z,22.54
2023-02-10T06:26:55.605Z,22.56
2023-02-10T06:27:55.652Z,22.57
2023-02-10T06:28:55.589Z,22.57
2023-02-10T06:29:55.587Z,22.56
2023-02-10T06:30:55.627Z,22.56
2023-02-10T06:31:55.611Z,22.55
2023-02-10T06:32:55.525Z,22.52
2023-02-10T06:33:55.525Z,22.53
2023-02-10T06:34:55.513Z,22.55
2023-02-10T06:35:55.495Z,22.54
2023-02-10T06:36:55.630Z,22.57
2023-02-10T06:37:55.463Z,22.60
2023-02-10T06:38:55.447Z,22.61
2023-02-10T06:39:55.430Z,22.61
2023-02-10T06:40:55.432Z,22.62
2023-02-10T06:41:55.402Z,22.63
2023-02-10T06:42:55.378Z,22.64
2023-02-10T06:43:55.355Z,22.66
2023-02-10T06:44:55.335Z,22.66
2023-02-10T06:45:55.425Z,22.70
2023-02-10T06:46:55.816Z,22.71
2023-02-10T06:47:55.256Z,22.73
2023-02-10T06:48:55.244Z,22.75
2023-02-10T06:49:55.228Z,22.76
2023-02-10T06:50:55.223Z,22.76
2023-02-10T06:51:55.304Z,22.73
2023-02-10T06:52:55.172Z,22.76
2023-02-10T06:53:55.145Z,22.80
2023-02-10T06:54:55.140Z,22.82
2023-02-10T06:55:55.116Z,22.79
2023-02-10T06:56:55.130Z,22.79
2023-02-10T06:57:55.109Z,22.82
2023-02-10T06:58:55.062Z,22.86
2023-02-10T06:59:55.035Z,22.89
2023-02-10T07:00:55.025Z,22.92
2023-02-10T07:01:55.006Z,22.93
2023-02-10T07:02:55.024Z,22.96
2023-02-10T07:03:54.961Z,23.00
2023-02-10T07:04:54.990Z,23.01
2023-02-10T07:05:54.922Z,23.00
2023-02-10T07:06:54.877Z,22.99
2023-02-10T07:07:54.888Z,23.00
2023-02-10T07:08:54.871Z,23.02
2023-02-10T07:09:54.816Z,23.04
2023-02-10T07:10:54.807Z,23.08
2023-02-10T07:11:54.807Z,23.09
2023-02-10T07:12:56.718Z,23.10
2023-02-10T07:13:54.773Z,23.10
2023-02-10T07:14:54.705Z,23.11
2023-02-10T07:15:54.700Z,23.14
2023-02-10T07:16:54.659Z,23.18
2023-02-10T07:17:54.668Z,23.19
2023-02-10T07:18:54.632Z,23.17
2023-02-10T07:19:54.642Z,23.17
2023-02-10T07:20:54.578Z,23.18
2023-02-10T07:21:54.547Z,23.18
2023-02-10T07:22:54.536Z,23.19
2023-02-10T07:23:54.498Z,23.22
2023-02-10T07:24:54.484Z,23.24
2023-02-10T07:25:54.449Z,23.24
2023-02-10T07:26:54.435Z,23.27
2023-02-10T07:27:54.440Z,23.34
2023-02-10T07:28:54.373Z,23.36
2023-02-10T07:29:54.358Z,23.38
2023-02-10T07:30:54.366Z,23.40
2023-02-10T07:31:54.413Z,23.41
2023-02-10T07:32:54.273Z,23.41
2023-02-10T07:33:54.255Z,23.44
2023-02-10T07:34:54.232Z,23.40
2023-02-10T07:35:54.260Z,23.43
2023-02-10T07:36:54.164Z,23.46
2023-02-10T07:37:54.128Z,23.44
2023-02-10T07:38:54.132Z,23.42
2023-02-10T07:39:54.093Z,23.45
2023-02-10T07:40:54.073Z,23.44
2023-02-10T07:41:54.049Z,23.44
2023-02-10T07:42:54.008Z,23.46
2023-02-10T07:43:53.989Z,23.48
2023-02-10T07:44:53.968Z,23.50
2023-02-10T07:45:54.182Z,23.50
2023-02-10T09:38:50.853Z,24.00
2023-02-10T09:39:50.766Z,24.02
2023-02-10T09:40:50.682Z,24.02
2023-02-10T09:41:50.659Z,24.03
2023-02-10T09:42:50.605Z,24.05
2023-02-10T09:43:50.580Z,24.09
2023-02-10T09:44:50.536Z,24.09
2023-02-10T09:45:51.023Z,24.10
2023-02-10T09:46:50.462Z,24.11
2023-02-10T09:47:50.487Z,24.15
2023-02-10T09:48:50.435Z,24.18
2023-02-10T09:49:50.346Z,24.19
2023-02-10T09:50:50.308Z,24.21
2023-02-10T09:51:50.269Z,24.23
2023-02-10T09:52:50.236Z,24.25
2023-02-10T09:53:50.204Z,24.26
2023-02-10T09:54:52.893Z,24.27
2023-02-10T09:55:50.429Z,24.29
2023-02-10T09:56:50.078Z,24.30
2023-02-10T09:57:50.043Z,24.31
2023-02-10T09:58:50.015Z,24.33
2023-02-10T09:59:50.020Z,24.32
2023-02-10T10:00:49.976Z,24.35
2023-02-10T10:01:49.929Z,24.38
2023-02-10T10:02:49.857Z,24.41
2023-02-10T10:03:49.838Z,24.42
2023-02-10T10:04:49.801Z,24.42
2023-02-10T10:05:50.137Z,24.43
2023-02-10T10:06:49.700Z,24.45
2023-02-10T10:07:49.654Z,24.46
2023-02-10T10:08:49.651Z,24.48
2023-02-10T10:09:49.588Z,24.51
2023-02-10T10:10:49.584Z,24.53
2023-02-10T10:11:49.514Z,24.54
2023-02-10T10:12:49.493Z,24.55
2023-02-10T10:13:49.429Z,24.56
2023-02-10T10:14:49.398Z,24.56
2023-02-10T10:15:49.354Z,24.58
2023-02-10T10:16:49.417Z,24.58
2023-02-10T10:17:49.345Z,24.59
2023-02-10T10:18:49.261Z,24.61
2023-02-10T10:19:49.192Z,24.63
2023-02-10T10:20:49.140Z,24.65
2023-02-10T10:21:49.103Z,24.69
2023-02-10T10:22:49.081Z,24.71
2023-02-10T10:23:49.018Z,24.73
2023-02-10T10:24:48.967Z,24.74
2023-02-10T10:25:49.257Z,24.75
2023-02-10T10:26:48.906Z,24.75
2023-02-10T10:27:48.834Z,24.77
2023-02-10T10:28:48.802Z,24.80
2023-02-10T10:29:48.751Z,24.83
2023-02-10T10:30:48.773Z,24.85
2023-02-10T10:31:48.701Z,24.86
2023-02-10T10:32:48.629Z,24.88
2023-02-10T10:33:48.604Z,24.88
2023-02-10T10:34:48.540Z,24.90
2023-02-10T10:35:48.807Z,24.91
2023-02-10T10:36:48.461Z,24.94
2023-02-10T10:37:48.396Z,24.97
2023-02-10T10:38:48.371Z,24.97
2023-02-10T10:39:48.392Z,24.98
2023-02-10T10:40:48.465Z,25.02
2023-02-10T10:41:48.228Z,25.02
2023-02-10T10:42:48.190Z,25.04
2023-02-10T10:43:48.140Z,25.05
2023-02-10T10:44:48.114Z,25.06
2023-02-10T10:45:48.517Z,25.07
2023-02-10T10:46:48.006Z,25.08
2023-02-10T10:47:47.970Z,25.11
2023-02-10T10:48:47.959Z,25.12
2023-02-10T10:49:47.884Z,25.12
2023-02-10T10:50:47.841Z,25.14
2023-02-10T10:51:47.796Z,25.12
2023-02-10T10:52:47.751Z,25.13
2023-02-10T10:53:47.712Z,25.16
2023-02-10T10:54:47.681Z,25.15
2023-02-10T10:55:47.945Z,25.17
2023-02-10T10:56:47.586Z,25.19
2023-02-10T10:57:47.550Z,25.20
2023-02-10T10:58:47.512Z,25.22
2023-02-10T10:59:47.483Z,25.25
2023-02-10T11:00:47.418Z,25.25
2023-02-10T11:01:47.413Z,25.27
2023-02-10T11:02:47.366Z,25.30
2023-02-10T11:03:47.293Z,25.32
2023-02-10T11:04:47.354Z,25.33
2023-02-10T11:05:47.584Z,25.34
2023-02-10T11:06:47.151Z,25.36
2023-02-10T11:07:47.112Z,25.37
2023-02-10T11:08:47.084Z,25.37
2023-02-10T11:09:47.050Z,25.38
2023-02-10T11:10:47.503Z,25.40
2023-02-10T11:11:46.969Z,25.41
2023-02-10T11:12:46.956Z,25.43
2023-02-10T11:13:46.968Z,25.43
2023-02-10T11:14:46.909Z,25.44
2023-02-10T11:15:46.853Z,25.46
2023-02-10T11:40:46.049Z,25.68
2023-02-10T11:41:45.647Z,25.69
2023-02-10T11:42:45.589Z,25.70
2023-02-10T11:43:45.542Z,25.72
2023-02-10T11:44:45.496Z,25.72
2023-02-10T11:45:45.487Z,25.73
2023-02-10T11:46:45.371Z,25.74
2023-02-10T11:47:45.323Z,25.76
2023-02-10T11:48:45.283Z,25.77
2023-02-10T11:49:45.239Z,25.77
2023-02-10T11:50:45.178Z,25.77
2023-02-10T11:51:45.109Z,25.77
2023-02-10T11:52:45.060Z,25.79
2023-02-10T11:53:45.061Z,25.79
2023-02-10T11:54:44.950Z,25.80
2023-02-10T11:55:44.894Z,25.79
2023-02-10T11:56:44.841Z,25.79
2023-02-10T11:57:44.788Z,25.81
2023-02-10T11:58:44.733Z,25.83
2023-02-10T11:59:44.708Z,25.84
2023-02-10T12:00:44.626Z,25.86
2023-02-10T12:01:44.565Z,25.87
2023-02-10T12:02:44.561Z,25.89
2023-02-10T12:03:44.470Z,25.89
2023-02-10T12:04:44.390Z,25.90
2023-02-10T12:05:44.365Z,25.88
2023-02-10T12:06:44.275Z,25.88
2023-02-10T12:07:44.216Z,25.86
2023-02-10T12:08:44.329Z,25.87
2023-02-10T12:09:44.100Z,25.88
2023-02-10T12:10:44.054Z,25.90
2023-02-10T12:11:44.009Z,25.89
2023-02-10T12:59:41.278Z,25.99
2023-02-10T13:00:41.201Z,26.01
2023-02-10T13:01:41.210Z,26.03
2023-02-10T13:02:41.139Z,26.05
2023-02-10T13:03:41.058Z,26.08
2023-02-10T13:04:40.995Z,26.08
2023-02-10T13:05:40.937Z,26.10
2023-02-10T13:06:40.874Z,26.10
2023-02-10T13:07:40.809Z,26.11
2023-02-10T13:08:40.760Z,26.10
2023-02-10T13:09:40.714Z,26.12
2023-02-10T13:10:40.640Z,26.13
2023-02-10T13:11:40.579Z,26.10
2023-02-10T13:12:40.529Z,26.11
2023-02-10T13:13:40.482Z,26.10
2023-02-10T13:14:40.417Z,26.13
2023-02-10T13:15:40.352Z,26.10
2023-02-10T13:16:40.333Z,26.11
2023-02-10T13:17:40.237Z,26.09
2023-02-10T13:18:40.196Z,26.07
2023-02-10T13:19:40.149Z,26.04
2023-02-10T13:20:40.092Z,26.05
2023-02-10T13:21:40.029Z,26.07
2023-02-10T13:22:39.972Z,26.07
2023-02-10T13:23:39.912Z,26.07
2023-02-10T13:24:39.856Z,26.05
2023-02-10T13:25:39.803Z,26.00
2023-02-10T13:26:39.746Z,25.94
2023-02-10T13:27:39.679Z,25.94
2023-02-10T13:28:39.611Z,25.97
2023-02-10T13:29:39.717Z,25.97
2023-02-10T13:30:39.529Z,25.98
2023-02-10T13:31:39.486Z,26.02
2023-02-10T13:32:39.413Z,26.01
2023-02-10T13:33:39.348Z,26.02
2023-02-10T13:34:39.279Z,26.02
2023-02-10T13:35:39.240Z,25.99
2023-02-10T13:36:39.204Z,25.97
2023-02-10T13:37:39.143Z,25.98
2023-02-10T13:38:39.082Z,25.99
2023-02-10T13:39:39.024Z,26.00
2023-02-10T13:40:38.987Z,25.99
2023-02-10T13:41:38.949Z,25.94
2023-02-10T13:42:38.880Z,25.90
2023-02-10T13:43:38.823Z,25.89
2023-02-10T13:44:38.771Z,25.92
2023-02-10T13:45:38.725Z,25.96
2023-02-10T13:46:38.710Z,25.98
2023-02-10T13:47:38.625Z,25.98
2023-02-10T13:48:38.554Z,26.00
2023-02-10T13:49:38.512Z,26.01
2023-02-10T13:50:38.463Z,26.03
2023-02-10T13:51:38.444Z,26.02
2023-02-10T13:52:38.356Z,26.03
2023-02-10T13:53:38.330Z,26.03
2023-02-10T13:54:38.272Z,26.04
2023-02-10T13:55:38.193Z,26.04
2023-02-10T13:56:38.144Z,26.05
2023-02-10T13:57:38.098Z,26.07
2023-02-10T13:58:38.032Z,26.04
2023-02-10T13:59:37.980Z,26.02
2023-02-10T14:00:37.993Z,25.99
2023-02-10T14:01:37.894Z,25.97
2023-02-10T14:02:37.831Z,25.98
2023-02-10T14:03:37.801Z,26.00
2023-02-10T14:04:37.770Z,25.97
2023-02-10T14:05:37.667Z,25.96
2023-02-10T14:06:37.649Z,25.91
2023-02-10T14:07:37.568Z,25.90
2023-02-10T14:08:44.342Z,25.86
2023-02-10T14:09:38.460Z,25.88
2023-02-10T14:10:37.397Z,25.86
2023-02-10T14:11:37.361Z,25.89
2023-02-10T14:12:37.343Z,25.90
2023-02-10T14:13:37.287Z,25.91
2023-02-10T14:14:37.295Z,25.91
2023-02-10T14:15:37.229Z,25.92
2023-02-10T14:16:37.268Z,25.89
2023-02-10T14:17:37.108Z,25.90
2023-02-10T14:18:36.996Z,25.89
2023-02-10T14:19:36.945Z,25.88
2023-02-10T14:20:36.888Z,25.89
2023-02-10T14:21:36.833Z,25.89
2023-02-10T14:22:39.000Z,25.88
2023-02-10T14:23:36.938Z,25.85
2023-02-10T14:24:49.709Z,25.84
2023-02-10T14:25:37.862Z,25.81
2023-02-10T14:26:36.786Z,25.81
2023-02-10T14:27:36.833Z,25.82
2023-02-10T14:28:36.731Z,25.81
2023-02-10T14:29:36.645Z,25.82
2023-02-10T14:30:36.602Z,25.82
2023-02-10T14:31:36.672Z,25.83
2023-02-10T14:32:36.594Z,25.81
2023-02-10T14:33:36.441Z,25.78
2023-02-10T14:34:36.397Z,25.76
2023-02-10T14:35:36.351Z,25.75
2023-02-10T14:36:36.309Z,25.72
2023-02-10T14:37:36.300Z,25.72
2023-02-10T14:38:36.219Z,25.71
2023-02-10T14:39:36.144Z,25.69
2023-02-10T14:40:36.082Z,25.70
2023-02-10T14:41:36.080Z,25.68
2023-02-10T14:42:35.983Z,25.65
2023-02-10T14:43:35.988Z,25.61
2023-02-10T14:44:35.881Z,25.57
2023-02-10T14:45:35.861Z,25.57
2023-02-10T14:46:35.780Z,25.55
2023-02-10T14:47:35.780Z,25.54
2023-02-10T14:48:35.667Z,25.55
2023-02-10T14:49:35.616Z,25.54
2023-02-10T14:50:35.578Z,25.54
2023-02-10T14:51:35.514Z,25.56
2023-02-10T14:52:38.451Z,25.55
2023-02-10T14:53:35.400Z,25.56
2023-02-10T14:54:35.358Z,25.55
2023-02-10T14:55:35.318Z,25.52
2023-02-10T14:56:35.252Z,25.50
2023-02-10T14:57:35.227Z,25.48
2023-02-10T14:58:35.153Z,25.47
2023-02-10T14:59:35.123Z,25.43
2023-02-10T15:00:35.066Z,25.43
2023-02-10T15:01:35.034Z,25.42
2023-02-10T15:02:34.939Z,25.40
2023-02-10T15:03:34.892Z,25.39
2023-02-10T15:04:34.838Z,25.39
2023-02-10T15:05:34.786Z,25.37
2023-02-10T15:06:34.730Z,25.37
2023-02-10T15:07:34.687Z,25.35
2023-02-10T15:08:34.622Z,25.35
2023-02-10T15:09:34.602Z,25.34
2023-02-10T15:10:34.523Z,25.34
2023-02-10T15:11:34.487Z,25.32
2023-02-10T15:12:39.437Z,25.31
2023-02-10T15:13:35.394Z,25.31
2023-02-10T15:14:34.322Z,25.26
2023-02-10T15:15:34.261Z,25.24
2023-02-10T15:16:34.245Z,25.24
2023-02-10T15:17:34.153Z,25.25
2023-02-10T15:18:34.122Z,25.26
2023-02-10T15:19:34.087Z,25.22
2023-02-10T15:20:34.018Z,25.22
2023-02-10T15:21:33.977Z,25.24
2023-02-10T15:35:33.252Z,25.16
2023-02-10T15:36:33.207Z,25.14
2023-02-10T15:37:33.158Z,25.15
2023-02-10T15:38:33.096Z,25.11
2023-02-10T15:39:33.055Z,25.10
2023-02-10T15:40:32.994Z,25.10
2023-02-10T15:41:33.005Z,25.12
2023-02-10T15:42:32.929Z,25.11
2023-02-10T15:43:32.899Z,25.09
2023-02-10T15:44:32.837Z,25.08
2023-02-10T15:45:32.796Z,25.07
2023-02-10T15:46:32.799Z,25.06
2023-02-10T15:47:32.687Z,25.05
2023-02-10T15:48:38.838Z,25.04
2023-02-10T15:49:33.594Z,25.04
2023-02-10T15:50:32.559Z,25.05
2023-02-10T15:51:32.495Z,25.06
2023-02-10T15:52:32.446Z,25.04
2023-02-10T15:53:32.422Z,25.05
2023-02-10T15:54:32.375Z,25.05
2023-02-10T15:55:32.300Z,25.05
2023-02-10T15:56:32.246Z,25.05
2023-02-10T15:57:32.196Z,25.04
2023-02-10T15:58:32.134Z,25.03
2023-02-10T15:59:32.103Z,25.04
2023-02-10T16:00:32.042Z,25.04
2023-02-10T16:01:32.034Z,25.01
2023-02-10T16:02:32.008Z,25.02
2023-02-10T16:03:31.931Z,25.02
2023-02-10T16:04:31.861Z,25.01
2023-02-10T16:05:31.803Z,25.00
2023-02-10T16:06:31.776Z,25.00
2023-02-10T16:07:31.708Z,24.98
2023-02-10T16:08:31.680Z,24.99
2023-02-10T16:09:31.622Z,24.98
2023-02-10T16:10:31.580Z,24.98
2023-02-10T16:11:31.518Z,24.97
2023-02-10T16:12:31.476Z,24.96
2023-02-10T16:13:31.434Z,24.96
2023-02-10T16:14:31.415Z,24.95
2023-02-10T16:15:31.322Z,24.94
2023-02-10T16:16:31.272Z,24.95
2023-02-10T16:17:31.224Z,24.95
2023-02-10T16:18:31.194Z,24.94
2023-02-10T16:19:31.148Z,24.94
2023-02-10T16:20:31.099Z,24.93
2023-02-10T16:21:31.053Z,24.93
2023-02-10T16:22:31.017Z,24.93
2023-02-10T16:23:30.965Z,24.92
2023-02-10T16:24:30.926Z,24.92
2023-02-10T16:25:30.882Z,24.91
2023-02-10T16:26:30.849Z,24.91
2023-02-10T16:27:30.867Z,24.91
2023-02-10T16:28:30.797Z,24.90
2023-02-10T16:29:30.789Z,24.89
2023-02-10T16:30:30.699Z,24.88
2023-02-10T16:31:30.654Z,24.88
2023-02-10T16:32:30.588Z,24.88
2023-02-10T16:33:30.519Z,24.87
2023-02-10T16:34:30.485Z,24.87
2023-02-10T16:35:30.438Z,24.87
2023-02-10T16:36:30.390Z,24.87
2023-02-10T16:37:30.356Z,24.85
2023-02-10T16:38:30.319Z,24.85
2023-02-10T16:39:30.260Z,24.85
2023-02-10T16:40:30.218Z,24.83
2023-02-10T16:41:30.168Z,24.83
2023-02-10T16:42:30.147Z,24.83
2023-02-10T16:43:30.077Z,24.82
2023-02-10T16:44:30.035Z,24.82
2023-02-10T16:45:29.993Z,24.82
2023-02-10T16:46:30.010Z,24.80
2023-02-10T16:47:29.901Z,24.79
2023-02-10T16:48:29.869Z,24.78
2023-02-10T16:49:29.829Z,24.78
2023-02-10T16:50:29.801Z,24.77
2023-02-10T16:51:29.735Z,24.77
2023-02-10T16:52:29.696Z,24.77
2023-02-10T16:53:29.672Z,24.76
2023-02-10T16:54:29.629Z,24.76
2023-02-10T16:55:29.565Z,24.75
2023-02-10T16:56:29.526Z,24.75
2023-02-10T16:57:29.492Z,24.75
2023-02-10T16:58:29.461Z,24.74
2023-02-10T16:59:29.421Z,24.73
2023-02-10T17:00:29.383Z,24.72
2023-02-10T17:01:29.367Z,24.72
2023-02-10T17:02:29.359Z,24.71
2023-02-10T17:03:29.266Z,24.70
2023-02-10T17:04:29.229Z,24.69
2023-02-10T17:05:29.180Z,24.69
2023-02-10T17:06:29.152Z,24.68
2023-02-10T17:07:29.109Z,24.69
2023-02-10T17:08:29.081Z,24.69
2023-02-10T17:09:29.055Z,24.67
2023-02-10T17:10:28.997Z,24.67
2023-02-10T17:11:28.957Z,24.67
2023-02-10T17:12:28.925Z,24.65
2023-02-10T17:13:28.880Z,24.63
2023-02-10T17:14:28.856Z,24.62
2023-02-10T17:15:28.810Z,24.62
2023-02-10T17:16:28.870Z,24.62
2023-02-10T17:17:28.715Z,24.61
2023-02-10T17:18:28.680Z,24.59
2023-02-10T17:19:28.647Z,24.60
2023-02-10T17:20:28.622Z,24.60
2023-02-10T17:21:28.582Z,24.60
2023-02-10T17:22:28.553Z,24.59
2023-02-10T17:23:28.513Z,24.58
2023-02-10T17:24:28.464Z,24.57
2023-02-10T17:25:28.449Z,24.57
2023-02-10T17:26:28.407Z,24.56
2023-02-10T17:27:28.358Z,24.56
2023-02-10T17:28:28.390Z,24.54
2023-02-10T17:29:28.345Z,24.53
2023-02-10T17:30:28.267Z,24.53
2023-02-10T17:31:28.381Z,24.52
2023-02-10T17:32:28.192Z,24.51
2023-02-10T17:33:28.250Z,24.51
2023-02-10T17:34:28.123Z,24.52
2023-02-10T17:35:28.087Z,24.51
2023-02-10T17:36:28.047Z,24.51
2023-02-10T17:37:27.999Z,24.50
2023-02-10T17:38:27.961Z,24.48
2023-02-10T17:39:27.930Z,24.48
2023-02-10T17:40:27.904Z,24.46
2023-02-10T17:41:27.865Z,24.45
2023-02-10T17:42:29.728Z,24.44
2023-02-10T17:43:27.767Z,24.43
2023-02-10T17:44:27.735Z,24.46
2023-02-10T17:45:27.701Z,24.45
2023-02-10T17:46:27.711Z,24.45
2023-02-10T17:47:27.633Z,24.45
2023-02-10T17:48:27.604Z,24.45
2023-02-10T17:49:27.574Z,24.44
2023-02-10T17:50:27.528Z,24.43
2023-02-10T17:51:27.523Z,24.43
2023-02-10T17:52:27.462Z,24.40
2023-02-10T17:53:27.433Z,24.40
2023-02-10T17:54:27.406Z,24.39
2023-02-10T17:55:27.369Z,24.37
2023-02-10T17:56:27.345Z,24.37
2023-02-10T17:57:27.290Z,24.38
2023-02-10T17:58:28.092Z,24.36
2023-02-10T17:59:27.245Z,24.36
2023-02-10T18:00:27.213Z,24.34
2023-02-10T18:01:27.170Z,24.34
2023-02-10T18:02:27.253Z,24.33
2023-02-10T18:03:27.120Z,24.34
2023-02-10T18:04:27.092Z,24.33
2023-02-10T18:05:27.065Z,24.32
2023-02-10T18:06:27.059Z,24.32
2023-02-10T18:07:27.010Z,24.31
2023-02-10T18:08:26.982Z,24.31
2023-02-10T18:09:26.945Z,24.30
2023-02-10T18:10:26.917Z,24.29
2023-02-10T18:11:26.896Z,24.28
2023-02-10T18:12:26.870Z,24.27
2023-02-10T18:13:26.838Z,24.27
2023-02-10T18:14:26.819Z,24.25
2023-02-10T18:15:26.780Z,24.25
2023-02-10T18:16:26.897Z,24.25
2023-02-10T18:17:26.714Z,24.25
2023-02-10T18:18:26.706Z,24.24
2023-02-10T18:19:26.657Z,24.22
2023-02-10T18:20:26.649Z,24.22
2023-02-10T18:21:26.661Z,24.21
2023-02-10T18:22:26.581Z,24.21
2023-02-10T18:23:26.535Z,24.19
2023-02-10T18:24:26.512Z,24.19
2023-02-10T18:25:26.483Z,24.19
2023-02-10T18:26:26.597Z,24.18
2023-02-10T18:27:26.433Z,24.18
2023-02-10T18:28:26.464Z,24.18
2023-02-10T18:29:26.377Z,24.18
2023-02-10T18:30:26.339Z,24.17
2023-02-10T18:31:26.350Z,24.15
2023-02-10T18:32:26.287Z,24.14
2023-02-10T18:33:26.271Z,24.12
2023-02-10T18:34:26.227Z,24.13
2023-02-10T18:35:26.188Z,24.14
2023-02-10T18:36:26.147Z,24.12
2023-02-10T18:37:26.106Z,24.12
2023-02-10T18:38:26.079Z,24.12
2023-02-10T18:39:26.052Z,24.12
2023-02-10T18:40:26.027Z,24.12
2023-02-10T18:41:25.968Z,24.12
2023-02-10T18:42:25.945Z,24.13
2023-02-10T18:43:25.914Z,24.11
2023-02-10T18:44:25.866Z,24.11
2023-02-10T18:45:25.831Z,24.11
2023-02-10T18:46:25.883Z,24.10
2023-02-10T18:47:25.768Z,24.11
2023-02-10T19:04:25.089Z,24.03
2023-02-10T19:05:25.053Z,24.03
2023-02-10T19:06:25.013Z,24.02
2023-02-10T19:07:24.971Z,24.01
2023-02-10T19:08:24.933Z,24.00
2023-02-10T19:09:37.863Z,24.01
2023-02-10T19:10:25.876Z,24.01
2023-02-10T19:11:24.824Z,24.02
2023-02-10T19:12:24.786Z,24.01
2023-02-10T19:13:24.752Z,24.00
2023-02-10T19:14:24.709Z,23.98
2023-02-10T19:15:24.697Z,23.98
2023-02-10T19:16:24.760Z,23.98
2023-02-10T19:17:24.611Z,23.97
2023-02-10T19:18:24.575Z,23.98
2023-02-10T19:19:24.538Z,23.98
2023-02-10T19:20:24.505Z,23.97
2023-02-10T19:21:24.478Z,23.96
2023-02-10T19:22:24.452Z,23.94
2023-02-10T19:23:24.400Z,23.96
2023-02-10T19:24:24.386Z,23.97
2023-02-10T19:25:24.333Z,23.96
2023-02-10T19:26:24.303Z,23.97
2023-02-10T19:27:24.273Z,23.95
2023-02-10T19:28:24.366Z,23.93
2023-02-10T19:29:24.217Z,23.93
2023-02-10T19:30:24.318Z,23.94
2023-02-10T19:31:24.198Z,23.93
2023-02-10T19:32:24.082Z,23.94
2023-02-10T19:33:24.048Z,23.92
2023-02-10T19:34:24.004Z,23.92
2023-02-10T19:35:23.972Z,23.90
2023-02-10T19:36:23.928Z,23.90
2023-02-10T20:05:24.175Z,23.82
2023-02-10T20:07:24.191Z,23.81
2023-02-10T20:43:23.932Z,23.74
2023-02-10T20:45:23.944Z,23.75
2023-02-10T20:46:24.013Z,23.75
2023-02-10T20:47:24.002Z,23.74
2023-02-10T20:48:24.044Z,23.73
2023-02-10T20:49:24.078Z,23.73
2023-02-10T20:50:24.087Z,23.72
2023-02-10T20:51:24.124Z,23.73
2023-02-10T20:52:24.150Z,23.73
2023-02-10T20:53:24.177Z,23.73
2023-02-10T20:54:24.202Z,23.72
2023-02-10T20:55:24.226Z,23.72
2023-02-10T20:56:24.251Z,23.71
2023-02-10T20:57:24.279Z,23.72
2023-02-10T20:58:24.319Z,23.71
2023-02-10T20:59:24.347Z,23.72
2023-02-10T21:00:24.367Z,23.71
2023-02-10T21:01:24.431Z,23.71
2023-02-10T21:02:24.511Z,23.71
2023-02-10T21:03:24.466Z,23.71
2023-02-10T21:04:24.512Z,23.70
2023-02-10T21:05:24.517Z,23.69
2023-02-10T21:06:24.551Z,23.69
2023-02-10T21:07:24.592Z,23.69
2023-02-10T21:08:24.619Z,23.67
2023-02-10T21:09:24.676Z,23.68
2023-02-10T21:10:24.661Z,23.68
2023-02-10T21:11:24.688Z,23.69
2023-02-10T21:12:24.703Z,23.67
2023-02-10T21:13:24.739Z,23.66
2023-02-10T21:14:24.810Z,23.67
2023-02-10T21:15:24.780Z,23.66
2023-02-10T21:16:24.901Z,23.64
2023-02-10T21:17:24.845Z,23.65
2023-02-10T21:18:24.866Z,23.64
2023-02-10T21:19:24.912Z,23.64
2023-02-10T21:20:24.945Z,23.64
2023-02-10T21:21:24.966Z,23.65
2023-02-10T21:22:25.031Z,23.63
2023-02-10T21:23:25.023Z,23.62
2023-02-10T21:24:25.034Z,23.61
2023-02-10T21:25:25.061Z,23.63
2023-02-10T21:26:25.098Z,23.60
2023-02-10T21:27:25.115Z,23.60
2023-02-10T21:28:25.289Z,23.61
2023-02-10T21:29:25.172Z,23.62
2023-02-10T21:30:25.237Z,23.60
2023-02-10T21:31:25.303Z,23.60
2023-02-10T21:32:25.272Z,23.60
2023-02-10T21:34:25.285Z,23.60
2023-02-10T21:35:25.245Z,23.59
2023-02-10T21:36:25.234Z,23.58
2023-02-10T21:37:25.188Z,23.58
2023-02-10T21:38:25.155Z,23.59
2023-02-10T21:39:25.131Z,23.59
2023-02-10T21:40:25.105Z,23.59
2023-02-10T21:41:25.109Z,23.60
2023-02-10T21:42:25.155Z,23.60
2023-02-10T21:43:25.152Z,23.59
2023-02-10T21:44:25.187Z,23.58
2023-02-10T21:45:25.221Z,23.57
2023-02-10T21:46:25.281Z,23.56
2023-02-10T21:47:25.278Z,23.56
2023-02-10T21:48:25.308Z,23.57
2023-02-10T21:49:25.344Z,23.57
2023-02-10T21:50:25.370Z,23.57
2023-02-10T21:51:25.407Z,23.55
2023-02-10T21:52:25.466Z,23.56
2023-02-10T21:53:25.475Z,23.55
2023-02-10T21:54:25.538Z,23.55
2023-02-10T21:56:25.599Z,23.54
2023-02-10T23:05:25.536Z,23.31
2023-02-10T23:06:25.532Z,23.30
2023-02-10T23:07:25.494Z,23.31
2023-02-10T23:08:25.470Z,23.32
2023-02-10T23:09:25.461Z,23.32
2023-02-10T23:10:25.430Z,23.32
2023-02-10T23:11:25.404Z,23.32
2023-02-10T23:12:25.395Z,23.32
2023-02-10T23:13:25.397Z,23.31
2023-02-10T23:14:25.370Z,23.31
2023-02-10T23:15:25.333Z,23.31
2023-02-10T23:16:25.403Z,23.32
2023-02-10T23:17:25.280Z,23.31
2023-02-10T23:18:25.262Z,23.31
2023-02-10T23:19:25.255Z,23.31
2023-02-10T23:20:25.214Z,23.29
2023-02-10T23:21:25.202Z,23.29
2023-02-10T23:22:25.177Z,23.30
2023-02-10T23:23:25.164Z,23.31
2023-02-10T23:24:25.112Z,23.31
2023-02-10T23:25:25.085Z,23.31
2023-02-10T23:26:25.047Z,23.29
2023-02-10T23:27:25.017Z,23.29
2023-02-10T23:28:25.092Z,23.29
2023-02-10T23:29:24.959Z,23.29
2023-02-10T23:30:24.956Z,23.28
2023-02-10T23:31:25.037Z,23.27
2023-02-10T23:32:24.928Z,23.28
2023-02-10T23:33:24.899Z,23.30
2023-02-10T23:34:24.800Z,23.30
2023-02-10T23:35:24.766Z,23.30
2023-02-10T23:36:24.759Z,23.29
2023-02-10T23:37:24.715Z,23.28
2023-02-10T23:38:24.692Z,23.28
2023-02-10T23:39:24.657Z,23.27
2023-02-10T23:40:25.247Z,23.26
2023-02-10T23:41:24.621Z,23.26
2023-02-10T23:42:24.598Z,23.27
2023-02-10T23:43:24.578Z,23.26
2023-02-10T23:44:24.585Z,23.25
2023-02-10T23:45:24.526Z,23.24
2023-02-10T23:46:24.641Z,23.23
2023-02-10T23:47:24.487Z,23.23
2023-02-10T23:48:24.470Z,23.22
2023-02-10T23:49:24.443Z,23.23